Time;durP1;ratioP1;P1;durP2;ratioP2;P2;SDS_P1;SDS_P2;PMS_P1;PMS_P2;Temp;Humidity;BMP_temperature;BMP_pressure;BME280_temperature;BME280_humidity;BME280_pressure;Samples;Min_cycle;Max_cycle;Signal;HPM_P1;HPM_P2
2023/04/08 00:00:13;;;;;;;;;;;6.10;99.90;;;;;;5049338;28;19936;-60
2023/04/08 00:02:40;;;;;;;;;;;6.10;99.90;;;;;;5050350;28;19921;-62
2023/04/08 00:05:08;;;;;;;;;;;6.00;99.90;;;;;;5053966;28;19974;-61
2023/04/08 00:07:36;;;;;;;;;;;6.00;99.90;;;;;;5047018;28;19921;-61
2023/04/08 00:10:02;;;;;;;;;;;6.00;99.90;;;;;;5048743;28;19932;-62
2023/04/08 00:12:29;;;;;;;;;;;6.00;99.90;;;;;;5050357;28;19921;-61
2023/04/08 00:14:56;;;;;;;;;;;6.00;99.90;;;;;;5049145;28;19982;-62
2023/04/08 00:17:22;;;;;;;;;;;6.00;99.90;;;;;;5045176;28;19925;-62
2023/04/08 00:19:49;;;;;;;;;;;5.90;99.90;;;;;;5047409;28;19925;-59
2023/04/08 00:22:17;;;;;;;;;;;5.90;99.90;;;;;;5044733;28;20384;-61
2023/04/08 00:24:43;;;;;;;;;;;5.90;99.90;;;;;;5054191;28;19974;-61
2023/04/08 00:27:10;;;;;;;;;;;5.80;99.90;;;;;;5053125;28;19971;-61
2023/04/08 00:29:36;;;;;;;;;;;5.80;99.90;;;;;;5045108;28;19924;-62
2023/04/08 00:32:03;;;;;;;;;;;5.80;99.90;;;;;;5053209;28;19978;-62
2023/04/08 00:34:30;;;;;;;;;;;5.70;99.90;;;;;;5047711;28;20007;-61
2023/04/08 00:36:56;;;;;;;;;;;5.70;99.90;;;;;;5050304;28;19920;-61
2023/04/08 00:39:24;;;;;;;;;;;5.70;99.90;;;;;;5049128;28;20437;-62
2023/04/08 00:41:51;;;;;;;;;;;5.60;99.90;;;;;;5049870;28;19967;-61
2023/04/08 00:44:17;;;;;;;;;;;5.60;99.90;;;;;;5049872;28;20279;-62
2023/04/08 00:46:44;;;;;;;;;;;5.50;99.90;;;;;;5051959;28;19975;-61
2023/04/08 00:49:11;;;;;;;;;;;5.50;99.90;;;;;;5050331;28;19920;-61
2023/04/08 00:51:37;;;;;;;;;;;5.50;99.90;;;;;;5051486;28;19921;-62
2023/04/08 00:54:04;;;;;;;;;;;5.50;99.90;;;;;;5047246;28;19920;-61
2023/04/08 00:56:33;;;;;;;;;;;5.50;99.90;;;;;;5050114;28;19930;-60
2023/04/08 00:58:59;;;;;;;;;;;5.50;99.90;;;;;;5051239;28;19928;-61
2023/04/08 01:01:30;;;;;;;;;;;5.50;99.90;;;;;;5049481;28;19921;-60
2023/04/08 01:04:01;;;;;;;;;;;5.40;99.90;;;;;;5051472;28;19928;-62
2023/04/08 01:06:31;;;;;;;;;;;5.40;99.90;;;;;;5049106;28;20554;-62
2023/04/08 01:08:59;;;;;;;;;;;5.30;99.90;;;;;;5050452;28;19921;-62
2023/04/08 01:11:27;;;;;;;;;;;5.30;99.90;;;;;;5049766;28;19924;-61
2023/04/08 01:13:56;;;;;;;;;;;5.30;99.90;;;;;;5051245;28;19983;-61
2023/04/08 01:16:24;;;;;;;;;;;5.30;99.90;;;;;;5048871;28;19924;-60
2023/04/08 01:18:51;;;;;;;;;;;5.20;99.90;;;;;;5051410;28;19966;-60
2023/04/08 01:21:20;;;;;;;;;;;5.20;99.90;;;;;;5047300;28;19967;-62
2023/04/08 01:23:53;;;;;;;;;;;5.20;99.90;;;;;;5050046;28;19921;-60
2023/04/08 01:26:22;;;;;;;;;;;5.20;99.90;;;;;;5048954;28;19925;-61
2023/04/08 01:28:50;;;;;;;;;;;5.20;99.90;;;;;;5051623;28;19967;-60
2023/04/08 01:31:16;;;;;;;;;;;5.20;99.90;;;;;;5048639;28;19921;-61
2023/04/08 01:33:43;;;;;;;;;;;5.20;99.90;;;;;;5052226;28;19920;-60
2023/04/08 01:36:10;;;;;;;;;;;5.20;99.90;;;;;;5047649;28;19947;-61
2023/04/08 01:38:37;;;;;;;;;;;5.10;99.90;;;;;;5052415;28;19921;-61
2023/04/08 01:41:04;;;;;;;;;;;5.00;99.90;;;;;;5052260;28;19921;-59
2023/04/08 01:43:33;;;;;;;;;;;5.00;99.90;;;;;;5052267;28;19924;-61
2023/04/08 01:46:01;;;;;;;;;;;5.00;99.90;;;;;;5048928;28;20432;-62
2023/04/08 01:48:28;;;;;;;;;;;5.00;99.90;;;;;;5052458;28;19983;-60
2023/04/08 01:50:55;;;;;;;;;;;5.00;99.90;;;;;;5052436;28;19921;-61
2023/04/08 01:53:22;;;;;;;;;;;5.10;99.90;;;;;;5056201;28;19921;-62
2023/04/08 01:55:51;;;;;;;;;;;5.00;99.90;;;;;;5051465;28;19920;-61
2023/04/08 01:58:18;;;;;;;;;;;5.00;99.90;;;;;;5056336;28;19947;-60
2023/04/08 02:00:47;;;;;;;;;;;4.90;99.90;;;;;;5052175;28;19920;-61
2023/04/08 02:03:14;;;;;;;;;;;4.90;99.90;;;;;;5056230;28;19975;-62
2023/04/08 02:05:40;;;;;;;;;;;4.90;99.90;;;;;;5052324;28;19921;-62
2023/04/08 02:08:08;;;;;;;;;;;4.90;99.90;;;;;;5051733;28;20277;-61
2023/04/08 02:10:35;;;;;;;;;;;4.90;99.90;;;;;;5050868;28;19982;-62
2023/04/08 02:13:02;;;;;;;;;;;4.90;99.90;;;;;;5051964;28;19928;-61
2023/04/08 02:15:29;;;;;;;;;;;4.80;99.90;;;;;;5051481;28;20341;-61
2023/04/08 02:18:00;;;;;;;;;;;4.80;99.90;;;;;;5051761;28;19990;-61
2023/04/08 02:20:30;;;;;;;;;;;4.90;99.90;;;;;;5049156;28;19983;-61
2023/04/08 02:23:00;;;;;;;;;;;4.80;99.90;;;;;;5053990;28;20337;-62
2023/04/08 02:25:28;;;;;;;;;;;4.80;99.90;;;;;;5051177;28;19925;-61
2023/04/08 02:27:55;;;;;;;;;;;4.80;99.90;;;;;;5052046;28;20337;-62
2023/04/08 02:30:23;;;;;;;;;;;4.90;99.90;;;;;;5051137;28;19921;-62
2023/04/08 02:32:50;;;;;;;;;;;4.90;99.90;;;;;;5055067;28;19921;-62
2023/04/08 02:35:18;;;;;;;;;;;4.90;99.90;;;;;;5047170;28;19967;-62
2023/04/08 02:37:46;;;;;;;;;;;5.00;99.90;;;;;;5054196;28;19921;-61
2023/04/08 02:40:22;;;;;;;;;;;5.00;99.90;;;;;;5050193;28;20337;-61
2023/04/08 02:42:49;;;;;;;;;;;5.00;99.90;;;;;;5049190;28;19920;-62
2023/04/08 02:45:15;;;;;;;;;;;5.00;99.90;;;;;;5057731;28;19921;-61
2023/04/08 02:47:42;;;;;;;;;;;5.10;99.90;;;;;;5054879;28;19975;-62
2023/04/08 02:50:09;;;;;;;;;;;5.10;99.90;;;;;;5052533;28;19957;-62
2023/04/08 02:52:37;;;;;;;;;;;5.00;99.90;;;;;;5054818;28;19974;-61
2023/04/08 02:55:05;;;;;;;;;;;5.00;99.90;;;;;;5050110;28;19925;-61
2023/04/08 02:57:31;;;;;;;;;;;5.00;99.90;;;;;;5054665;28;19927;-61
2023/04/08 02:59:58;;;;;;;;;;;5.10;99.90;;;;;;5050306;28;19974;-62
2023/04/08 03:02:25;;;;;;;;;;;5.10;99.90;;;;;;5054298;28;19921;-62
2023/04/08 03:04:51;;;;;;;;;;;5.10;99.90;;;;;;5045962;28;19921;-61
2023/04/08 03:07:18;;;;;;;;;;;5.10;99.90;;;;;;5051109;28;19921;-61
2023/04/08 03:09:45;;;;;;;;;;;5.10;99.90;;;;;;5051423;28;20350;-61
2023/04/08 03:12:12;;;;;;;;;;;5.10;99.90;;;;;;5054185;28;19971;-62
2023/04/08 03:14:38;;;;;;;;;;;5.10;99.90;;;;;;5050426;28;19975;-62
2023/04/08 03:17:05;;;;;;;;;;;5.00;99.90;;;;;;5054135;28;20551;-62
2023/04/08 03:19:31;;;;;;;;;;;5.00;99.90;;;;;;5048452;28;19921;-60
2023/04/08 03:21:58;;;;;;;;;;;5.00;99.90;;;;;;5052443;28;19921;-61
2023/04/08 03:24:25;;;;;;;;;;;5.00;99.90;;;;;;5052880;28;19982;-62
2023/04/08 03:26:52;;;;;;;;;;;5.00;99.90;;;;;;5052036;28;19974;-62
2023/04/08 03:29:19;;;;;;;;;;;4.90;99.90;;;;;;5050175;28;19975;-61
2023/04/08 03:31:45;;;;;;;;;;;4.90;99.90;;;;;;5045922;28;19921;-62
2023/04/08 03:34:12;;;;;;;;;;;4.90;99.90;;;;;;5050576;28;19921;-61
2023/04/08 03:36:38;;;;;;;;;;;4.90;99.90;;;;;;5053156;28;20284;-61
2023/04/08 03:39:05;;;;;;;;;;;4.90;99.90;;;;;;5051702;28;19928;-61
2023/04/08 03:41:31;;;;;;;;;;;4.90;99.90;;;;;;5048400;28;19963;-61
2023/04/08 03:43:59;;;;;;;;;;;4.80;99.90;;;;;;5052468;28;19921;-60
2023/04/08 03:46:26;;;;;;;;;;;4.70;99.90;;;;;;5051598;28;19933;-60
2023/04/08 03:48:52;;;;;;;;;;;4.60;99.90;;;;;;5053403;28;19983;-61
2023/04/08 03:51:19;;;;;;;;;;;4.60;99.90;;;;;;5054222;28;19966;-61
2023/04/08 03:53:47;;;;;;;;;;;4.70;99.90;;;;;;5053521;28;19921;-60
2023/04/08 03:56:13;;;;;;;;;;;4.70;99.90;;;;;;5047979;28;19998;-62
2023/04/08 03:58:39;;;;;;;;;;;4.70;99.90;;;;;;5051360;28;19921;-61
2023/04/08 04:01:07;;;;;;;;;;;4.80;99.90;;;;;;5049376;28;19920;-62
2023/04/08 04:03:34;;;;;;;;;;;4.80;99.90;;;;;;5053401;28;19947;-62
2023/04/08 04:06:01;;;;;;;;;;;4.80;99.90;;;;;;5049682;28;19925;-62
2023/04/08 04:08:27;;;;;;;;;;;4.80;99.90;;;;;;5053951;28;19921;-61
2023/04/08 04:10:54;;;;;;;;;;;4.80;99.90;;;;;;5049899;28;19979;-62
2023/04/08 04:13:20;;;;;;;;;;;4.80;99.90;;;;;;5053996;28;19921;-60
2023/04/08 04:15:47;;;;;;;;;;;4.90;99.90;;;;;;5045246;28;20379;-61
2023/04/08 04:18:15;;;;;;;;;;;4.90;99.90;;;;;;5053313;28;19920;-61
2023/04/08 04:20:41;;;;;;;;;;;4.90;99.90;;;;;;5049842;28;19921;-61
2023/04/08 04:23:08;;;;;;;;;;;5.00;99.90;;;;;;5053787;28;19921;-62
2023/04/08 04:25:34;;;;;;;;;;;4.90;99.90;;;;;;5048431;28;20398;-61
2023/04/08 04:28:01;;;;;;;;;;;4.90;99.90;;;;;;5048682;28;19940;-60
2023/04/08 04:30:28;;;;;;;;;;;4.90;99.90;;;;;;5048701;28;20306;-61
2023/04/08 04:32:55;;;;;;;;;;;4.90;99.90;;;;;;5051472;28;19928;-61
2023/04/08 04:35:23;;;;;;;;;;;4.90;99.90;;;;;;5053212;28;20341;-60
2023/04/08 04:37:50;;;;;;;;;;;4.90;99.90;;;;;;5051375;28;19921;-61
2023/04/08 04:40:17;;;;;;;;;;;5.00;99.90;;;;;;5048733;28;19921;-61
2023/04/08 04:42:44;;;;;;;;;;;5.00;99.90;;;;;;5052836;28;20139;-60
2023/04/08 04:45:11;;;;;;;;;;;5.00;99.90;;;;;;5044301;28;19927;-61
2023/04/08 04:47:37;;;;;;;;;;;5.10;99.90;;;;;;5047500;28;19924;-60
2023/04/08 04:50:04;;;;;;;;;;;5.20;99.90;;;;;;5048412;28;19925;-60
2023/04/08 04:52:32;;;;;;;;;;;5.20;99.90;;;;;;5048466;28;19921;-61
2023/04/08 04:54:59;;;;;;;;;;;5.20;99.90;;;;;;5047989;28;19944;-61
2023/04/08 04:57:25;;;;;;;;;;;5.20;99.90;;;;;;5044559;28;19925;-61
2023/04/08 04:59:52;;;;;;;;;;;5.10;99.90;;;;;;5048640;28;20346;-60
2023/04/08 05:02:18;;;;;;;;;;;5.20;99.90;;;;;;5051748;28;19920;-61
2023/04/08 05:04:45;;;;;;;;;;;5.20;99.90;;;;;;5052540;28;19947;-61
2023/04/08 05:07:12;;;;;;;;;;;5.20;99.90;;;;;;5051598;28;20478;-60
2023/04/08 05:09:39;;;;;;;;;;;5.30;99.90;;;;;;5047430;28;19920;-61
2023/04/08 05:12:06;;;;;;;;;;;5.30;99.90;;;;;;5049368;28;19921;-60
2023/04/08 05:14:33;;;;;;;;;;;5.30;99.90;;;;;;5047320;28;19967;-60
2023/04/08 05:16:59;;;;;;;;;;;5.30;99.90;;;;;;5049568;28;20519;-62
2023/04/08 05:19:26;;;;;;;;;;;5.30;99.90;;;;;;5051141;28;19920;-61
2023/04/08 05:21:52;;;;;;;;;;;5.20;99.90;;;;;;5047582;28;19967;-60
2023/04/08 05:24:19;;;;;;;;;;;5.30;99.90;;;;;;5048363;28;19967;-62
2023/04/08 05:26:51;;;;;;;;;;;5.20;99.90;;;;;;5050401;28;19971;-62
2023/04/08 05:29:17;;;;;;;;;;;5.20;99.90;;;;;;5050089;28;19943;-62
2023/04/08 05:31:44;;;;;;;;;;;5.30;99.90;;;;;;5047868;28;19921;-61
2023/04/08 05:34:11;;;;;;;;;;;5.30;99.90;;;;;;5052212;28;19921;-60
2023/04/08 05:36:37;;;;;;;;;;;5.30;99.90;;;;;;5050770;28;19921;-62
2023/04/08 05:39:04;;;;;;;;;;;5.30;99.90;;;;;;5052163;28;19925;-62
2023/04/08 05:41:30;;;;;;;;;;;5.40;99.90;;;;;;5047922;28;20268;-62
2023/04/08 05:43:58;;;;;;;;;;;5.40;99.90;;;;;;5051209;28;19925;-62
2023/04/08 05:46:24;;;;;;;;;;;5.50;99.90;;;;;;5048795;28;19924;-62
2023/04/08 05:48:51;;;;;;;;;;;5.50;99.90;;;;;;5050790;28;19925;-60
2023/04/08 05:51:17;;;;;;;;;;;5.60;99.90;;;;;;5048224;28;19921;-61
2023/04/08 05:53:45;;;;;;;;;;;5.60;99.90;;;;;;5051960;28;19920;-62
2023/04/08 05:56:11;;;;;;;;;;;5.60;99.90;;;;;;5047954;28;19950;-61
2023/04/08 05:58:38;;;;;;;;;;;5.60;99.90;;;;;;5051985;28;20015;-61
2023/04/08 06:01:06;;;;;;;;;;;5.50;99.90;;;;;;5046703;28;19971;-62
2023/04/08 06:03:32;;;;;;;;;;;5.60;99.90;;;;;;5051714;28;19966;-62
2023/04/08 06:05:59;;;;;;;;;;;5.60;99.90;;;;;;5050296;28;19982;-62
2023/04/08 06:08:25;;;;;;;;;;;5.70;99.90;;;;;;5051957;28;19920;-60
2023/04/08 06:10:52;;;;;;;;;;;5.70;99.90;;;;;;5047418;28;19974;-62
2023/04/08 06:13:19;;;;;;;;;;;5.70;99.90;;;;;;5051626;28;20437;-62
2023/04/08 06:15:47;;;;;;;;;;;5.80;99.90;;;;;;5050849;28;19921;-62
2023/04/08 06:18:15;;;;;;;;;;;5.70;99.90;;;;;;5051198;28;19921;-61
2023/04/08 06:20:42;;;;;;;;;;;5.60;99.90;;;;;;5050868;28;19921;-62
2023/04/08 06:23:08;;;;;;;;;;;5.60;99.90;;;;;;5051728;28;19920;-61
2023/04/08 06:25:35;;;;;;;;;;;5.70;99.90;;;;;;5047491;28;19924;-62
2023/04/08 06:28:02;;;;;;;;;;;5.70;99.90;;;;;;5045738;28;19990;-62
2023/04/08 06:30:28;;;;;;;;;;;5.80;99.90;;;;;;5047308;28;19921;-61
2023/04/08 06:32:55;;;;;;;;;;;5.80;99.90;;;;;;5049126;28;19924;-62
2023/04/08 06:35:23;;;;;;;;;;;5.90;99.90;;;;;;5055620;28;19921;-62
2023/04/08 06:37:50;;;;;;;;;;;6.00;99.90;;;;;;5049904;28;20012;-62
2023/04/08 06:40:16;;;;;;;;;;;6.00;99.90;;;;;;5047148;28;19990;-61
2023/04/08 06:42:43;;;;;;;;;;;6.00;99.90;;;;;;5054474;28;20002;-62
2023/04/08 06:45:10;;;;;;;;;;;6.10;99.90;;;;;;5055239;28;19920;-62
2023/04/08 06:47:36;;;;;;;;;;;6.10;99.90;;;;;;5054877;28;19920;-61
2023/04/08 06:50:03;;;;;;;;;;;6.10;99.90;;;;;;5048318;28;20088;-61
2023/04/08 06:52:31;;;;;;;;;;;6.10;99.90;;;;;;5055045;28;19920;-62
2023/04/08 06:54:57;;;;;;;;;;;6.10;99.90;;;;;;5049924;28;19925;-61
2023/04/08 06:57:24;;;;;;;;;;;6.20;99.90;;;;;;5054665;28;19970;-61
2023/04/08 06:59:52;;;;;;;;;;;6.20;99.90;;;;;;5050699;28;19948;-61
2023/04/08 07:02:18;;;;;;;;;;;6.10;99.90;;;;;;5054573;28;19960;-62
2023/04/08 07:04:45;;;;;;;;;;;5.90;99.90;;;;;;5050943;28;20349;-61
2023/04/08 07:07:11;;;;;;;;;;;5.90;99.90;;;;;;5054590;28;19970;-62
2023/04/08 07:09:40;;;;;;;;;;;6.00;99.90;;;;;;5050882;28;19921;-62
2023/04/08 07:12:06;;;;;;;;;;;5.90;99.90;;;;;;5054798;28;19925;-62
2023/04/08 07:14:33;;;;;;;;;;;5.90;99.90;;;;;;5049426;28;19921;-60
2023/04/08 07:16:59;;;;;;;;;;;5.90;99.90;;;;;;5050675;28;20363;-62
2023/04/08 07:19:26;;;;;;;;;;;5.80;99.90;;;;;;5049164;28;20393;-62
2023/04/08 07:21:53;;;;;;;;;;;5.80;99.90;;;;;;5054655;28;19929;-62
2023/04/08 07:24:19;;;;;;;;;;;5.80;99.90;;;;;;5051119;28;20433;-60
2023/04/08 07:26:48;;;;;;;;;;;5.80;99.90;;;;;;5054199;28;19920;-61
2023/04/08 07:29:15;;;;;;;;;;;6.00;99.90;;;;;;5045107;28;19928;-62
2023/04/08 07:31:42;;;;;;;;;;;6.10;99.90;;;;;;5052530;28;19975;-60
2023/04/08 07:34:09;;;;;;;;;;;6.20;99.90;;;;;;5049600;28;20356;-62
2023/04/08 07:36:37;;;;;;;;;;;6.00;99.90;;;;;;5054172;28;19920;-61
2023/04/08 07:39:03;;;;;;;;;;;6.00;99.90;;;;;;5051119;28;19927;-62
2023/04/08 07:41:30;;;;;;;;;;;6.10;99.90;;;;;;5053326;28;19925;-61
2023/04/08 07:43:58;;;;;;;;;;;6.30;99.90;;;;;;5049023;28;19920;-62
2023/04/08 07:46:24;;;;;;;;;;;6.30;99.90;;;;;;5049970;28;20337;-62
2023/04/08 07:48:51;;;;;;;;;;;6.40;99.90;;;;;;5048787;28;20007;-61
2023/04/08 07:51:18;;;;;;;;;;;6.40;99.90;;;;;;5053416;28;20421;-60
2023/04/08 07:53:44;;;;;;;;;;;6.50;99.90;;;;;;5050820;28;19928;-61
2023/04/08 07:56:11;;;;;;;;;;;6.50;99.90;;;;;;5054674;28;19920;-62
2023/04/08 07:58:39;;;;;;;;;;;6.30;99.90;;;;;;5052089;28;19924;-62
2023/04/08 08:01:14;;;;;;;;;;;6.30;99.90;;;;;;5046232;28;19925;-62
2023/04/08 08:03:40;;;;;;;;;;;6.40;99.90;;;;;;5050010;28;20338;-60
2023/04/08 08:06:07;;;;;;;;;;;6.50;99.90;;;;;;5052257;28;20336;-62
2023/04/08 08:08:35;;;;;;;;;;;6.60;99.90;;;;;;5053587;28;19921;-62
2023/04/08 08:11:01;;;;;;;;;;;6.70;99.90;;;;;;5053274;28;19924;-61
2023/04/08 08:13:28;;;;;;;;;;;6.70;99.90;;;;;;5050167;28;19967;-62
2023/04/08 08:15:54;;;;;;;;;;;6.70;99.90;;;;;;5048014;28;19982;-62
2023/04/08 08:18:22;;;;;;;;;;;6.70;99.90;;;;;;5053522;28;20278;-61
2023/04/08 08:20:49;;;;;;;;;;;6.60;99.90;;;;;;5052129;28;19924;-60
2023/04/08 08:23:15;;;;;;;;;;;6.40;99.90;;;;;;5053240;28;19970;-61
2023/04/08 08:25:42;;;;;;;;;;;6.50;99.90;;;;;;5049136;28;19924;-62
2023/04/08 08:28:08;;;;;;;;;;;6.60;99.90;;;;;;5049577;28;19974;-62
2023/04/08 08:30:35;;;;;;;;;;;6.60;99.90;;;;;;5048519;28;19924;-61
2023/04/08 08:33:01;;;;;;;;;;;6.70;99.90;;;;;;5048555;28;19920;-61
2023/04/08 08:35:29;;;;;;;;;;;6.60;99.90;;;;;;5053048;28;20341;-61
2023/04/08 08:37:56;;;;;;;;;;;6.60;99.90;;;;;;5049600;28;19931;-62
2023/04/08 08:40:22;;;;;;;;;;;6.50;99.90;;;;;;5049630;28;20287;-62
2023/04/08 08:42:50;;;;;;;;;;;6.70;99.90;;;;;;5046831;28;19978;-62
2023/04/08 08:45:16;;;;;;;;;;;6.60;99.90;;;;;;5042430;28;20372;-61
2023/04/08 08:47:43;;;;;;;;;;;6.80;99.90;;;;;;5048204;28;19944;-62
2023/04/08 08:50:10;;;;;;;;;;;7.00;99.90;;;;;;5050490;28;19967;-62
2023/04/08 08:52:37;;;;;;;;;;;7.00;99.90;;;;;;5048904;28;19920;-62
2023/04/08 08:55:04;;;;;;;;;;;7.00;99.90;;;;;;5048593;28;19920;-67
2023/04/08 08:57:31;;;;;;;;;;;7.30;99.90;;;;;;5053712;28;19920;-67
2023/04/08 08:59:57;;;;;;;;;;;7.40;99.90;;;;;;5046828;28;19991;-68
2023/04/08 09:02:26;;;;;;;;;;;7.50;99.90;;;;;;5053754;28;19920;-67
2023/04/08 09:04:59;;;;;;;;;;;7.70;99.90;;;;;;5045860;28;19928;-62
2023/04/08 09:07:25;;;;;;;;;;;7.90;99.90;;;;;;5052499;28;19949;-62
2023/04/08 09:09:54;;;;;;;;;;;7.90;99.90;;;;;;5048173;28;20011;-61
2023/04/08 09:12:21;;;;;;;;;;;7.80;99.90;;;;;;5052650;28;20284;-62
2023/04/08 09:14:48;;;;;;;;;;;7.80;99.90;;;;;;5045510;28;19974;-62
2023/04/08 09:17:15;;;;;;;;;;;7.80;99.90;;;;;;5048020;28;19932;-62
2023/04/08 09:20:05;;;;;;;;;;;7.80;99.90;;;;;;5049388;28;19975;-62
2023/04/08 09:22:31;;;;;;;;;;;7.80;99.90;;;;;;5049255;28;19996;-62
2023/04/08 09:24:59;;;;;;;;;;;7.90;99.90;;;;;;5049344;28;20631;-62
2023/04/08 09:27:35;;;;;;;;;;;7.90;99.90;;;;;;5047567;28;20553;-62
2023/04/08 09:30:14;;;;;;;;;;;8.00;99.90;;;;;;5044472;28;20282;-63
2023/04/08 09:32:47;;;;;;;;;;;8.10;99.90;;;;;;5051879;28;20302;-62
2023/04/08 09:35:15;;;;;;;;;;;8.00;53.30;;;;;;5043088;28;19921;-62
2023/04/08 09:37:42;;;;;;;;;;;8.00;43.90;;;;;;5052638;28;19928;-62
2023/04/08 09:40:10;;;;;;;;;;;7.90;74.70;;;;;;5048627;28;20458;-63
2023/04/08 09:42:39;;;;;;;;;;;8.00;99.90;;;;;;5052796;28;20901;-62
2023/04/08 09:45:06;;;;;;;;;;;7.90;20.10;;;;;;5048601;28;19998;-62
2023/04/08 09:47:35;;;;;;;;;;;7.80;27.70;;;;;;5052456;28;20361;-60
2023/04/08 09:50:02;;;;;;;;;;;7.60;60.30;;;;;;5048851;28;19974;-62
2023/04/08 09:52:30;;;;;;;;;;;7.60;68.00;;;;;;5052796;28;20295;-61
2023/04/08 09:54:59;;;;;;;;;;;7.50;38.60;;;;;;5048228;28;19982;-62
2023/04/08 09:57:32;;;;;;;;;;;7.50;46.20;;;;;;5049113;28;19924;-62
2023/04/08 10:00:03;;;;;;;;;;;7.60;64.50;;;;;;5036547;28;20395;-67
2023/04/08 10:02:30;;;;;;;;;;;7.50;30.20;;;;;;5049020;28;19927;-62
2023/04/08 10:04:58;;;;;;;;;;;7.50;41.00;;;;;;5047762;28;20421;-72
2023/04/08 10:07:25;;;;;;;;;;;7.60;41.60;;;;;;5048243;28;19929;-61
2023/04/08 10:09:52;;;;;;;;;;;7.60;55.20;;;;;;5050356;28;20065;-61
2023/04/08 10:12:18;;;;;;;;;;;7.60;70.60;;;;;;5055081;28;19943;-66
2023/04/08 10:15:00;;;;;;;;;;;7.50;67.40;;;;;;5051053;28;19921;-68
2023/04/08 10:17:30;;;;;;;;;;;7.50;61.00;;;;;;5052412;28;19920;-61
2023/04/08 10:19:57;;;;;;;;;;;7.40;63.30;;;;;;5049064;28;19971;-69
2023/04/08 10:22:43;;;;;;;;;;;7.30;56.80;;;;;;5057002;28;19925;-67
2023/04/08 10:25:28;;;;;;;;;;;7.30;79.10;;;;;;5058638;28;19936;-59
2023/04/08 10:27:55;;;;;;;;;;;7.20;90.90;;;;;;5054676;28;19921;-61
2023/04/08 10:30:36;;;;;;;;;;;7.30;93.90;;;;;;5051962;28;19947;-60
2023/04/08 10:33:09;;;;;;;;;;;7.30;95.90;;;;;;5055999;28;19925;-61
2023/04/08 10:35:36;;;;;;;;;;;7.40;99.90;;;;;;5050194;28;20303;-60
2023/04/08 10:38:03;;;;;;;;;;;7.40;99.90;;;;;;5048863;28;19921;-61
2023/04/08 10:40:36;;;;;;;;;;;7.40;99.90;;;;;;5050331;28;20338;-60
2023/04/08 10:43:04;;;;;;;;;;;7.50;99.90;;;;;;5046187;28;20280;-60
2023/04/08 10:45:30;;;;;;;;;;;7.50;95.90;;;;;;5051675;28;19967;-60
2023/04/08 10:47:57;;;;;;;;;;;7.60;91.20;;;;;;5053668;28;20337;-61
2023/04/08 10:50:25;;;;;;;;;;;7.70;96.20;;;;;;5051348;28;19947;-61
2023/04/08 10:52:53;;;;;;;;;;;7.70;92.70;;;;;;5053664;28;19972;-61
2023/04/08 10:55:22;;;;;;;;;;;7.60;87.60;;;;;;5048452;28;19921;-61
2023/04/08 10:57:50;;;;;;;;;;;7.60;72.80;;;;;;5047212;28;20661;-61
2023/04/08 11:00:18;;;;;;;;;;;7.70;97.50;;;;;;5046119;28;20375;-61
2023/04/08 11:02:44;;;;;;;;;;;7.80;99.90;;;;;;5054292;28;19921;-62
2023/04/08 11:05:11;;;;;;;;;;;8.00;99.90;;;;;;5053501;28;19990;-60
2023/04/08 11:07:41;;;;;;;;;;;8.10;83.90;;;;;;5050377;28;19982;-62
2023/04/08 11:10:08;;;;;;;;;;;8.20;91.90;;;;;;5049162;28;19921;-59
2023/04/08 11:12:36;;;;;;;;;;;8.30;89.60;;;;;;5054393;28;19921;-61
2023/04/08 11:15:03;;;;;;;;;;;8.40;95.60;;;;;;5050147;28;20011;-61
2023/04/08 11:17:30;;;;;;;;;;;8.60;99.90;;;;;;5053928;28;19990;-62
2023/04/08 11:20:01;;;;;;;;;;;8.80;99.90;;;;;;5051723;28;19921;-61
2023/04/08 11:22:29;;;;;;;;;;;8.90;62.20;;;;;;5059921;28;19924;-59
2023/04/08 11:24:57;;;;;;;;;;;8.90;26.40;;;;;;5059439;28;19927;-59
2023/04/08 11:27:24;;;;;;;;;;;8.90;48.70;;;;;;5055319;28;19920;-59
2023/04/08 11:29:51;;;;;;;;;;;8.90;22.00;;;;;;5044127;28;19928;-60
2023/04/08 11:32:18;;;;;;;;;;;8.90;38.90;;;;;;5054923;28;19990;-60
2023/04/08 11:34:46;;;;;;;;;;;9.10;71.40;;;;;;5046905;28;20327;-60
2023/04/08 11:37:13;;;;;;;;;;;9.20;75.50;;;;;;5055713;28;19925;-61
2023/04/08 11:39:41;;;;;;;;;;;8.90;35.20;;;;;;5052510;28;19983;-61
2023/04/08 11:42:09;;;;;;;;;;;9.00;81.60;;;;;;5053872;28;19921;-62
2023/04/08 11:44:36;;;;;;;;;;;9.10;85.60;;;;;;5050333;28;19921;-61
2023/04/08 11:47:02;;;;;;;;;;;9.40;90.90;;;;;;5053620;28;19971;-61
2023/04/08 11:49:43;;;;;;;;;;;9.30;17.30;;;;;;5050865;28;19921;-61
2023/04/08 11:52:09;;;;;;;;;;;9.30;33.80;;;;;;5051119;28;19921;-60
2023/04/08 11:54:40;;;;;;;;;;;9.30;50.60;;;;;;5048505;28;19968;-61
2023/04/08 11:57:09;;;;;;;;;;;9.30;63.80;;;;;;5053453;28;19924;-60
2023/04/08 11:59:36;;;;;;;;;;;9.30;59.70;;;;;;5048680;28;19927;-60
2023/04/08 12:02:02;;;;;;;;;;;9.30;65.30;;;;;;5052842;28;19927;-61
2023/04/08 12:04:29;;;;;;;;;;;9.40;63.90;;;;;;5050421;28;19932;-62
2023/04/08 12:06:55;;;;;;;;;;;9.60;96.60;;;;;;5052023;28;19927;-61
2023/04/08 12:09:22;;;;;;;;;;;9.60;75.70;;;;;;5048444;28;19925;-60
2023/04/08 12:11:48;;;;;;;;;;;9.70;68.10;;;;;;5050738;28;19920;-62
2023/04/08 12:14:16;;;;;;;;;;;9.70;27.80;;;;;;5040813;28;19967;-62
2023/04/08 12:16:43;;;;;;;;;;;9.80;75.10;;;;;;5049007;28;19974;-62
2023/04/08 12:19:09;;;;;;;;;;;9.80;66.20;;;;;;5053149;28;20351;-61
2023/04/08 12:21:37;;;;;;;;;;;9.70;53.60;;;;;;5046127;28;19920;-63
2023/04/08 12:24:03;;;;;;;;;;;9.90;64.60;;;;;;5051566;28;19955;-63
2023/04/08 12:26:30;;;;;;;;;;;10.00;18.00;;;;;;5048589;28;20433;-60
2023/04/08 12:28:56;;;;;;;;;;;10.00;8.60;;;;;;5046545;28;19982;-60
2023/04/08 12:31:26;;;;;;;;;;;9.90;21.80;;;;;;5048430;28;19925;-61
2023/04/08 12:33:53;;;;;;;;;;;10.00;45.80;;;;;;5047104;28;19951;-63
2023/04/08 12:36:19;;;;;;;;;;;10.10;64.00;;;;;;5052221;28;19920;-61
2023/04/08 12:38:46;;;;;;;;;;;10.00;63.10;;;;;;5047877;28;19946;-62
2023/04/08 12:41:12;;;;;;;;;;;9.90;23.50;;;;;;5049589;28;19970;-61
2023/04/08 12:43:39;;;;;;;;;;;9.80;37.30;;;;;;5052324;28;20410;-62
2023/04/08 12:46:06;;;;;;;;;;;9.80;48.20;;;;;;5047779;28;19982;-63
2023/04/08 12:48:34;;;;;;;;;;;9.80;53.70;;;;;;5052595;28;19983;-61
2023/04/08 12:51:00;;;;;;;;;;;9.60;58.30;;;;;;5049885;28;19928;-62
2023/04/08 12:53:27;;;;;;;;;;;9.50;91.60;;;;;;5052721;28;19928;-61
2023/04/08 12:55:55;;;;;;;;;;;9.50;96.00;;;;;;5047585;28;19924;-63
2023/04/08 12:58:22;;;;;;;;;;;9.50;99.90;;;;;;5052121;28;19924;-62
2023/04/08 13:00:49;;;;;;;;;;;9.50;99.90;;;;;;5047781;28;19924;-61
2023/04/08 13:03:16;;;;;;;;;;;9.40;93.50;;;;;;5052319;28;19921;-61
2023/04/08 13:05:44;;;;;;;;;;;9.30;91.00;;;;;;5048220;28;20291;-61
2023/04/08 13:08:11;;;;;;;;;;;9.60;99.90;;;;;;5048619;28;19974;-60
2023/04/08 13:10:38;;;;;;;;;;;9.70;99.90;;;;;;5047077;28;19931;-60
2023/04/08 13:13:04;;;;;;;;;;;9.80;93.00;;;;;;5047544;28;19921;-60
2023/04/08 13:15:31;;;;;;;;;;;9.90;56.80;;;;;;5048522;28;19975;-60
2023/04/08 13:17:57;;;;;;;;;;;9.90;44.80;;;;;;5049002;28;19924;-60
2023/04/08 13:20:24;;;;;;;;;;;9.80;48.00;;;;;;5052966;28;19990;-57
2023/04/08 13:22:52;;;;;;;;;;;9.80;93.00;;;;;;5049627;28;20272;-60
2023/04/08 13:25:19;;;;;;;;;;;9.80;88.10;;;;;;5047965;28;19920;-60
2023/04/08 13:27:45;;;;;;;;;;;9.80;84.30;;;;;;5049425;28;19925;-59
2023/04/08 13:30:12;;;;;;;;;;;9.60;89.70;;;;;;5047937;28;19986;-59
2023/04/08 13:32:39;;;;;;;;;;;9.60;96.40;;;;;;5043693;28;19921;-59
2023/04/08 13:35:05;;;;;;;;;;;9.70;97.60;;;;;;5051944;28;20326;-60
2023/04/08 13:37:32;;;;;;;;;;;9.80;93.10;;;;;;5049471;28;20352;-60
2023/04/08 13:40:00;;;;;;;;;;;9.80;97.10;;;;;;5052151;28;19966;-59
2023/04/08 13:42:26;;;;;;;;;;;9.90;92.60;;;;;;5050832;28;20017;-60
2023/04/08 13:44:53;;;;;;;;;;;9.90;68.00;;;;;;5042802;28;19925;-60
2023/04/08 13:47:19;;;;;;;;;;;9.90;72.60;;;;;;5049423;28;19924;-59
2023/04/08 13:49:46;;;;;;;;;;;9.80;90.90;;;;;;5051649;28;19920;-59
2023/04/08 13:52:12;;;;;;;;;;;9.70;91.10;;;;;;5048270;28;19921;-60
2023/04/08 13:54:39;;;;;;;;;;;9.70;97.90;;;;;;5051009;28;19920;-60
2023/04/08 13:57:06;;;;;;;;;;;9.70;88.90;;;;;;5049608;28;19991;-60
2023/04/08 13:59:33;;;;;;;;;;;9.60;99.90;;;;;;5046514;28;19995;-60
2023/04/08 14:02:00;;;;;;;;;;;9.70;99.90;;;;;;5048973;28;19978;-60
2023/04/08 14:04:27;;;;;;;;;;;9.60;99.80;;;;;;5047995;28;20062;-60
2023/04/08 14:06:56;;;;;;;;;;;9.60;91.70;;;;;;5050220;28;19924;-59
2023/04/08 14:09:23;;;;;;;;;;;9.50;99.90;;;;;;5045886;28;20371;-61
2023/04/08 14:11:49;;;;;;;;;;;9.60;99.90;;;;;;5042044;28;19924;-61
2023/04/08 14:14:17;;;;;;;;;;;9.60;99.90;;;;;;5033083;28;19979;-63
2023/04/08 14:16:44;;;;;;;;;;;9.50;99.90;;;;;;5045720;28;19925;-60
2023/04/08 14:19:10;;;;;;;;;;;9.60;99.90;;;;;;5049059;28;19974;-61
2023/04/08 14:21:37;;;;;;;;;;;9.60;99.90;;;;;;5051161;28;19920;-62
2023/04/08 14:24:04;;;;;;;;;;;9.70;99.90;;;;;;5046012;28;19982;-62
2023/04/08 14:26:34;;;;;;;;;;;9.70;99.90;;;;;;5047535;28;20330;-62
2023/04/08 14:29:01;;;;;;;;;;;9.60;99.90;;;;;;5048696;28;19924;-62
2023/04/08 14:31:29;;;;;;;;;;;9.60;99.90;;;;;;5050959;28;19970;-61